Latest Weather Observations for Mount Hotham

IDV60801

Issued at 9:32 am EST Monday 23 April 2018 (issued every 10 minutes, with the page automatically refreshed every 10 minutes)

About weather observations | Map of weather stations | Latest weather observations for VIC | Other Formats
Station Details ID: 083085 Name: MOUNT HOTHAM Lat: -36.98 Lon: 147.13 Height: 1849.0 m
Data from the previous 72 hours. | See also: Recent months at Mount Hotham
Date/Time
EST
Temp
°C
App
Temp
°C
Dew
Point
°C
Rel
Hum
%
Delta-T
°C
Wind Press
QNH
hPa
Press
MSL
hPa
Rain since
9am
mm
Dir  Spd
km/h
Gust
km/h
Spd
kts
Gust
kts
23/09:30am 8.7 - - - - WSW 17 28 9 15 - - 0.0
23/09:00am 8.3 - - - - WSW 17 24 9 13 - - 0.0
23/08:30am 7.9 - - - - WSW 22 28 12 15 - - 0.0
23/08:00am 7.7 - - - - SSW 24 32 13 17 - - 0.0
23/07:30am 7.2 - - - - SSW 24 33 13 18 - - 0.0
23/07:00am 6.9 - - - - SSW 28 39 15 21 - - 0.0
23/06:30am 6.9 - - - - SSW 26 35 14 19 - - 0.0
23/06:00am 7.3 - - - - SSW 26 41 14 22 - - 0.0
23/05:30am 7.3 - - - - SW 20 30 11 16 - - 0.0
23/05:00am 6.2 - - - - SW 15 20 8 11 - - 0.0
23/04:30am 6.0 - - - - SW 13 20 7 11 - - 0.0
23/04:00am 6.4 - - - - SW 15 19 8 10 - - 0.0
23/03:30am 6.8 - - - - SW 13 19 7 10 - - 0.0
23/03:00am 6.5 - - - - SW 17 24 9 13 - - 0.0
23/02:30am 6.4 - - - - SW 19 20 10 11 - - 0.0
23/02:00am 6.5 - - - - SW 11 13 6 7 - - 0.0
23/01:30am 6.7 - - - - WSW 13 17 7 9 - - 0.0
23/01:00am 6.2 - - - - W 13 17 7 9 - - 0.0
23/12:30am 6.3 - - - - WNW 11 13 6 7 - - 0.0
23/12:00am 7.7 - - - - W 7 9 4 5 - - 0.0
 
Date/Time
EST
Temp
°C
App
Temp
°C
Dew
Point
°C
Rel
Hum
%
Delta-T
°C
Wind Press
QNH
hPa
Press
MSL
hPa
Rain since
9am
mm
Dir  Spd
km/h
Gust
km/h
Spd
kts
Gust
kts
22/11:30pm 7.6 - - - - W 6 6 3 3 - - 0.0
22/11:00pm 7.1 - - - - CALM 0 2 0 1 - - 0.0
22/10:30pm 7.1 - - - - E 6 7 3 4 - - 0.0
22/10:00pm 7.0 - - - - E 6 11 3 6 - - 0.0
22/09:30pm 6.8 - - - - E 9 13 5 7 - - 0.0
22/09:00pm 6.8 - - - - ESE 9 13 5 7 - - 0.0
22/08:30pm 6.5 - - - - E 7 11 4 6 - - 0.0
22/08:00pm 6.9 - - - - ESE 6 9 3 5 - - 0.0
22/07:30pm 7.1 - - - - ESE 6 6 3 3 - - 0.0
22/07:00pm 7.5 - - - - SSE 4 7 2 4 - - 0.0
22/06:30pm 7.7 - - - - WNW 9 13 5 7 - - 0.0
22/06:00pm 7.9 - - - - WNW 15 19 8 10 - - 0.0
22/05:30pm 8.6 - - - - NW 15 20 8 11 - - 0.0
22/05:00pm 8.7 - - - - NW 15 20 8 11 - - 0.0
22/04:30pm 9.4 - - - - NW 13 19 7 10 - - 0.0
22/04:00pm 9.9 - - - - WNW 15 19 8 10 - - 0.0
22/03:30pm 10.8 - - - - WNW 13 24 7 13 - - 0.0
22/03:00pm 10.4 - - - - NW 9 17 5 9 - - 0.0
22/02:30pm 11.3 - - - - NW 13 19 7 10 - - 0.0
22/02:00pm 11.0 - - - - WNW 9 17 5 9 - - 0.0
22/01:30pm 10.9 - - - - W 9 17 5 9 - - 0.0
22/01:00pm 10.9 - - - - W 7 13 4 7 - - 0.0
22/12:30pm 9.8 - - - - SSW 7 13 4 7 - - 0.0
22/12:00pm 10.0 - - - - WSW 6 11 3 6 - - 0.0
22/11:30am 9.3 - - - - SW 9 13 5 7 - - 0.0
22/11:00am 9.4 - - - - WSW 7 15 4 8 - - 0.0
22/10:30am 9.7 - - - - WNW 9 17 5 9 - - 0.0
22/10:00am 9.4 - - - - NW 7 15 4 8 - - 0.0
22/09:30am 8.9 - - - - N 15 26 8 14 - - 0.0
22/09:00am 8.8 - - - - NNW 17 26 9 14 - - 0.0
22/08:30am 7.6 - - - - NNW 17 22 9 12 - - 0.0
22/08:00am 6.9 - - - - NNW 17 20 9 11 - - 0.0
22/07:30am 6.8 - - - - NNW 17 22 9 12 - - 0.0
22/07:00am 6.6 - - - - NNW 24 30 13 16 - - 0.0
22/06:30am 6.8 - - - - NNW 24 28 13 15 - - 0.0
22/06:00am 6.8 - - - - N 22 30 12 16 - - 0.0
22/05:30am 7.2 - - - - N 24 32 13 17 - - 0.0
22/05:00am 7.4 - - - - NNW 28 37 15 20 - - 0.0
22/04:30am 7.5 - - - - NNW 24 32 13 17 - - 0.0
22/04:00am 7.5 - - - - NNW 24 32 13 17 - - 0.0
22/03:30am 7.9 - - - - N 26 32 14 17 - - 0.0
22/03:00am 7.6 - - - - NNW 22 26 12 14 - - 0.0
22/02:30am 7.6 - - - - NNW 24 30 13 16 - - 0.0
22/02:00am 7.5 - - - - NNW 22 28 12 15 - - 0.0
22/01:30am 7.6 - - - - NNW 22 26 12 14 - - 0.0
22/01:00am 7.7 - - - - NNW 22 28 12 15 - - 0.0
22/12:30am 7.1 - - - - NNW 22 24 12 13 - - 0.0
22/12:00am 6.9 - - - - NNW 15 17 8 9 - - 0.0
 
Date/Time
EST
Temp
°C
App
Temp
°C
Dew
Point
°C
Rel
Hum
%
Delta-T
°C
Wind Press
QNH
hPa
Press
MSL
hPa
Rain since
9am
mm
Dir  Spd
km/h
Gust
km/h
Spd
kts
Gust
kts
21/11:30pm 7.2 - - - - N 13 15 7 8 - - 0.0
21/11:00pm 7.8 - - - - N 7 9 4 5 - - 0.0
21/10:30pm 8.0 - - - - N 7 9 4 5 - - 0.0
21/10:00pm 8.9 - - - - NNE 9 11 5 6 - - 0.0
21/09:30pm 8.1 - - - - ENE 6 9 3 5 - - 0.0
21/09:00pm 8.2 - - - - ENE 6 6 3 3 - - 0.0
21/08:30pm 7.9 - - - - E 7 9 4 5 - - 0.0
21/08:00pm 7.8 - - - - SE 9 13 5 7 - - 0.0
21/07:30pm 7.7 - - - - SE 11 15 6 8 - - 0.0
21/07:00pm 8.5 - - - - E 4 7 2 4 - - 0.0
21/06:30pm 8.8 - - - - N 2 6 1 3 - - 0.0
21/06:00pm 8.4 - - - - NNW 9 9 5 5 - - 0.0
21/05:30pm 9.3 - - - - NW 11 15 6 8 - - 0.0
21/05:00pm 9.9 - - - - NW 11 15 6 8 - - 0.0
21/04:30pm 10.1 - - - - NW 9 15 5 8 - - 0.0
21/04:00pm 10.3 - - - - NW 11 17 6 9 - - 0.0
21/03:30pm 10.1 - - - - WNW 13 17 7 9 - - 0.0
21/03:00pm 10.4 - - - - WNW 13 19 7 10 - - 0.0
21/02:30pm 12.1 - - - - NW 13 24 7 13 - - 0.0
21/02:00pm 11.9 - - - - NW 11 17 6 9 - - 0.0
21/01:30pm 11.4 - - - - NW 11 22 6 12 - - 0.0
21/01:00pm 12.3 - - - - N 15 26 8 14 - - 0.0
21/12:30pm 11.6 - - - - NW 15 22 8 12 - - 0.0
21/12:00pm 11.7 - - - - NNW 15 26 8 14 - - 0.0
21/11:30am 11.5 - - - - NNW 15 22 8 12 - - 0.0
21/11:00am 11.9 - - - - NNW 19 26 10 14 - - 0.0
21/10:30am 10.9 - - - - NNW 19 28 10 15 - - 0.0
21/10:00am 11.1 - - - - N 19 26 10 14 - - 0.0
21/09:30am 9.9 - - - - NNW 15 20 8 11 - - 0.0
21/09:00am 9.6 - - - - NW 17 22 9 12 - - 0.0
21/08:30am 10.1 - - - - NNW 15 19 8 10 - - 0.0
21/08:00am 9.1 - - - - NNW 17 20 9 11 - - 0.0
21/07:30am 8.5 - - - - NNW 15 17 8 9 - - 0.0
21/07:00am 7.8 - - - - NNW 17 20 9 11 - - 0.0
21/06:30am 7.6 - - - - NW 19 20 10 11 - - 0.0
21/06:00am 7.4 - - - - NNW 19 24 10 13 - - 0.0
21/05:30am 7.8 - - - - NNW 17 20 9 11 - - 0.0
21/05:00am 7.4 - - - - NNW 17 20 9 11 - - 0.0
21/04:30am 7.3 - - - - NNW 17 19 9 10 - - 0.0
21/04:00am 8.1 - - - - NNW 17 19 9 10 - - 0.0
21/03:30am 7.6 - - - - NNW 17 19 9 10 - - 0.0
21/03:00am 7.9 - - - - NNW 20 24 11 13 - - 0.0
21/02:30am 8.3 - - - - NNW 20 24 11 13 - - 0.0
21/02:00am 8.3 - - - - NNW 24 28 13 15 - - 0.0
21/01:30am 8.3 - - - - NNW 24 26 13 14 - - 0.0
21/01:00am 8.5 - - - - NNW 22 24 12 13 - - 0.0
21/12:30am 8.1 - - - - N 20 22 11 12 - - 0.0
21/12:00am 8.3 - - - - N 17 19 9 10 - - 0.0
 
Date/Time
EST
Temp
°C
App
Temp
°C
Dew
Point
°C
Rel
Hum
%
Delta-T
°C
Wind Press
QNH
hPa
Press
MSL
hPa
Rain since
9am
mm
Dir  Spd
km/h
Gust
km/h
Spd
kts
Gust
kts
20/11:30pm 8.1 - - - - NNW 13 15 7 8 - - 0.0
20/11:00pm 8.1 - - - - N 13 15 7 8 - - 0.0
20/10:30pm 8.5 - - - - N 15 17 8 9 - - 0.0
20/10:00pm 8.3 - - - - N 13 17 7 9 - - 0.0
20/09:30pm 8.7 - - - - NNE 9 11 5 6 - - 0.0
20/09:00pm 8.4 - - - - N 6 7 3 4 - - 0.0
20/08:30pm 7.8 - - - - NNW 7 9 4 5 - - 0.0
20/08:00pm 8.3 - - - - N 6 6 3 3 - - 0.0
20/07:30pm 8.3 - - - - NE 7 9 4 5 - - 0.0
20/07:00pm 7.7 - - - - E 9 13 5 7 - - 0.0
20/06:30pm 8.1 - - - - E 9 13 5 7 - - 0.0
20/06:00pm 9.2 - - - - E 7 11 4 6 - - 0.0
20/05:30pm 10.0 - - - - E 6 9 3 5 - - 0.0
20/05:00pm 11.3 - - - - ESE 4 7 2 4 - - 0.0
20/04:30pm 12.4 - - - - SW 4 9 2 5 - - 0.0
20/04:00pm 12.3 - - - - S 6 11 3 6 - - 0.0
20/03:30pm 12.4 - - - - S 9 13 5 7 - - 0.0
20/03:00pm 13.0 - - - - S 6 9 3 5 - - 0.0
20/02:30pm 12.8 - - - - SSE 6 9 3 5 - - 0.0
20/02:00pm 13.5 - - - - S 4 13 2 7 - - 0.0
20/01:30pm 12.6 - - - - SSE 6 11 3 6 - - 0.0
20/01:00pm 12.1 - - - - SSW 6 9 3 5 - - 0.0
20/12:30pm 12.2 - - - - WSW 6 11 3 6 - - 0.0
20/12:00pm 12.1 - - - - NW 9 15 5 8 - - 0.0
20/11:30am 12.0 - - - - NW 7 19 4 10 - - 0.0
20/11:00am 12.3 - - - - NNW 9 17 5 9 - - 0.0
20/10:30am 11.6 - - - - NW 11 17 6 9 - - 0.0
20/10:00am 11.0 - - - - NW 13 22 7 12 - - 0.0

Other Formats:

Comma delimited format used in spreadsheet applications
http://www.bom.gov.au/fwo/IDV60801/IDV60801.94906.axf

JavaScript Object Notation format (JSON) in row-major order
http://www.bom.gov.au/fwo/IDV60801/IDV60801.94906.json